Time;durP1;ratioP1;P1;durP2;ratioP2;P2;SDS_P1;SDS_P2;PMS_P1;PMS_P2;Temp;Humidity;BMP_temperature;BMP_pressure;BME280_temperature;BME280_humidity;BME280_pressure;Samples;Min_cycle;Max_cycle;Signal;HPM_P1;HPM_P2
2022/05/16 00:00:03;;;;;;;13.43;4.93;;;;;;;13.90;54.54;100729.05;125129;1115;101955;-80
2022/05/16 00:03:10;;;;;;;14.03;4.83;;;;;;;13.90;54.43;100734.33;125072;1114;102181;-80
2022/05/16 00:05:42;;;;;;;10.13;4.43;;;;;;;13.89;54.85;100739.56;125233;1115;102691;-80
2022/05/16 00:11:16;;;;;;;12.17;5.30;;;;;;;13.87;54.72;100731.61;125668;1112;101751;-80
2022/05/16 00:13:48;;;;;;;11.08;5.03;;;;;;;13.84;54.90;100732.41;125427;1112;103032;-80
2022/05/16 00:19:18;;;;;;;13.13;4.73;;;;;;;13.78;55.61;100731.36;125710;1109;102269;-80
2022/05/16 00:24:55;;;;;;;13.30;4.93;;;;;;;13.70;55.86;100733.80;125592;1109;101820;-81
2022/05/16 00:27:50;;;;;;;14.10;5.00;;;;;;;13.66;56.08;100737.19;125549;1105;103020;-80
2022/05/16 00:30:34;;;;;;;13.97;5.20;;;;;;;13.61;56.02;100737.06;126047;1105;104092;-82
2022/05/16 00:34:01;;;;;;;12.13;4.93;;;;;;;13.59;56.26;100733.51;126302;1096;102849;-78
2022/05/16 00:36:37;;;;;;;17.77;5.50;;;;;;;13.57;57.01;100735.22;125260;1106;104159;-78
2022/05/16 00:39:21;;;;;;;12.47;5.03;;;;;;;13.54;56.99;100735.14;125488;1109;102926;-80
2022/05/16 00:42:15;;;;;;;13.23;6.07;;;;;;;13.52;56.24;100730.66;125723;1096;118959;-77
2022/05/16 00:44:45;;;;;;;;;;;;;;;13.51;56.03;100735.05;125616;1109;102830;-78
2022/05/16 00:51:14;;;;;;;14.87;5.60;;;;;;;13.56;56.22;100743.97;125813;1109;101820;-78
2022/05/16 01:09:44;;;;;;;11.87;4.77;;;;;;;13.40;57.12;100734.75;126228;1105;104823;-79
2022/05/16 01:12:50;;;;;;;12.33;4.77;;;;;;;13.38;56.45;100735.55;126209;1105;101708;-77
2022/05/16 01:16:22;;;;;;;11.63;4.57;;;;;;;13.37;57.21;100736.39;125976;1105;104051;-79
2022/05/16 02:16:03;;;;;;;14.03;4.43;;;;;;;13.29;57.04;100752.86;127322;1101;101408;-79
2022/05/16 02:19:02;;;;;;;13.40;4.70;;;;;;;13.25;57.41;100747.45;126398;1102;101749;-79
2022/05/16 02:26:10;;;;;;;13.03;5.00;;;;;;;13.16;57.71;100752.46;125783;1109;105338;-79
2022/05/16 03:14:28;;;;;;;13.70;4.80;;;;;;;13.10;58.74;100779.51;127115;1102;102823;-78
2022/05/16 03:18:02;;;;;;;13.30;5.50;;;;;;;13.08;58.76;100789.12;126300;1102;101618;-79
2022/05/16 03:24:35;;;;;;;14.50;5.17;;;;;;;13.02;58.92;100794.20;125792;1108;102405;-78
2022/05/16 03:42:28;;;;;;;13.30;5.13;;;;;;;13.09;59.63;100807.61;128390;1088;101523;-79
2022/05/16 03:45:16;;;;;;;18.37;5.83;;;;;;;13.12;60.10;100805.06;127825;1086;102065;-78
2022/05/16 03:55:58;;;;;;;15.23;5.17;;;;;;;13.27;60.05;100817.78;127912;1089;106947;-80
2022/05/16 04:02:24;;;;;;;16.87;5.53;;;;;;;13.40;60.89;100813.83;127869;1093;101701;-79
2022/05/16 04:05:05;;;;;;;15.37;5.97;;;;;;;13.44;60.63;100815.69;126980;1093;102799;-77
2022/05/16 04:07:36;;;;;;;16.47;6.03;;;;;;;13.47;61.10;100818.41;126463;1093;101892;-77
2022/05/16 04:10:33;;;;;;;13.67;5.67;;;;;;;13.49;60.60;100823.73;127609;1089;101842;-78
2022/05/16 04:13:32;;;;;;;15.90;5.40;;;;;;;13.55;60.66;100821.27;128047;1092;102329;-77
2022/05/16 04:16:27;;;;;;;17.77;6.00;;;;;;;13.64;60.73;100810.98;128290;1089;108227;-77
2022/05/16 04:35:33;;;;;;;13.07;5.20;;;;;;;14.09;60.22;100825.39;126226;1102;102269;-78
2022/05/16 04:38:34;;;;;;;12.77;4.93;;;;;;;14.15;60.65;100825.56;126077;1102;102121;-77
2022/05/16 04:44:36;;;;;;;15.63;5.13;;;;;;;14.28;60.38;100829.40;126067;1105;103620;-77
2022/05/16 04:47:30;;;;;;;14.30;4.90;;;;;;;14.37;60.66;100834.03;125303;1106;102319;-78
2022/05/16 04:50:31;;;;;;;15.73;5.30;;;;;;;14.46;60.06;100831.62;125647;1105;101788;-78
2022/05/16 04:56:42;;;;;;;12.93;4.43;;;;;;;14.71;59.77;100837.55;125496;1109;102906;-79
2022/05/16 05:03:19;;;;;;;12.97;4.70;;;;;;;14.84;59.38;100836.09;125858;1105;101589;-79
2022/05/16 05:05:54;;;;;;;13.93;4.60;;;;;;;14.93;59.01;100833.66;126209;1105;101667;-78
2022/05/16 05:09:04;;;;;;;14.00;4.60;;;;;;;15.03;59.64;100846.21;125958;1105;108056;-81
2022/05/16 05:15:39;;;;;;;12.57;4.40;;;;;;;15.49;58.94;100841.06;125537;1108;102384;-78
2022/05/16 05:18:42;;;;;;;17.17;4.20;;;;;;;15.74;58.77;100849.51;125210;1109;103169;-79
2022/05/16 05:21:16;;;;;;;13.83;4.30;;;;;;;15.93;57.67;100843.73;124554;1112;104437;-76
2022/05/16 05:23:48;;;;;;;13.10;4.10;;;;;;;16.09;57.29;100844.91;123239;1115;104284;-75
2022/05/16 05:26:20;;;;;;;14.03;4.03;;;;;;;16.24;57.08;100846.95;123276;1115;104233;-76
2022/05/16 05:28:54;;;;;;;11.47;4.30;;;;;;;16.39;56.65;100848.09;123427;1112;104258;-77
2022/05/16 05:31:26;;;;;;;13.10;4.13;;;;;;;16.47;56.00;100847.36;123432;1111;104846;-76
2022/05/16 05:33:59;;;;;;;14.50;3.90;;;;;;;16.53;56.20;100851.86;123443;1112;104297;-76
2022/05/16 05:36:34;;;;;;;11.40;3.87;;;;;;;16.59;55.29;100845.78;123601;1112;102745;-76
2022/05/16 05:39:13;;;;;;;11.33;3.62;;;;;;;16.64;55.33;100844.09;123853;1109;104415;-78
2022/05/16 05:41:51;;;;;;;8.90;4.10;;;;;;;16.76;54.62;100846.05;124128;1109;104430;-78
2022/05/16 05:44:34;;;;;;;13.57;4.20;;;;;;;16.82;55.12;100841.73;123863;1105;104192;-77
2022/05/16 05:47:09;;;;;;;13.10;4.03;;;;;;;16.98;54.46;100852.61;124974;1106;104294;-78
2022/05/16 05:49:56;;;;;;;15.10;4.30;;;;;;;17.03;54.58;100861.52;124869;1105;104252;-77
2022/05/16 05:52:31;;;;;;;11.17;3.43;;;;;;;17.12;54.50;100847.52;124826;1104;102254;-78
2022/05/16 05:55:13;;;;;;;13.00;3.70;;;;;;;17.21;53.75;100847.64;124446;1106;103177;-78
2022/05/16 05:57:52;;;;;;;12.60;3.63;;;;;;;17.24;53.47;100840.61;124864;1105;104519;-77
2022/05/16 06:00:49;;;;;;;12.30;3.63;;;;;;;17.29;52.83;100840.67;125178;1102;105509;-78
2022/05/16 06:04:08;;;;;;;10.20;3.53;;;;;;;17.36;53.49;100836.37;125435;1102;102631;-79
2022/05/16 06:10:45;;;;;;;14.40;3.83;;;;;;;17.50;52.70;100840.08;124818;1109;102503;-79
2022/05/16 06:13:29;;;;;;;9.40;3.57;;;;;;;17.53;52.62;100840.13;124802;1109;104083;-81
2022/05/16 06:20:22;;;;;;;9.60;3.27;;;;;;;17.66;52.56;100834.97;124663;1109;102342;-80
2022/05/16 06:26:18;;;;;;;12.75;3.60;;;;;;;17.84;51.96;100831.62;124719;1104;103602;-81
2022/05/16 06:32:27;;;;;;;9.30;3.70;;;;;;;18.07;51.40;100840.75;124386;1112;102743;-80
2022/05/16 06:35:32;;;;;;;12.70;2.80;;;;;;;18.23;51.34;100835.59;125222;1112;102781;-80
2022/05/16 06:38:23;;;;;;;12.10;3.20;;;;;;;18.41;51.02;100843.73;124220;1112;102397;-79
2022/05/16 06:41:49;;;;;;;9.90;3.50;;;;;;;18.52;50.86;100840.30;124998;1106;102397;-82
2022/05/16 06:44:31;;;;;;;9.93;3.20;;;;;;;18.65;50.37;100837.75;124702;1105;102114;-79
2022/05/16 06:47:32;;;;;;;6.87;2.87;;;;;;;18.72;50.13;100840.46;124600;1105;102212;-81
2022/05/16 06:54:36;;;;;;;11.40;3.27;;;;;;;18.91;49.20;100842.39;125094;1109;102905;-80
2022/05/16 06:57:38;;;;;;;8.40;3.33;;;;;;;19.03;49.29;100842.47;124987;1109;103082;-81
2022/05/16 07:00:14;;;;;;;12.97;3.20;;;;;;;19.16;48.73;100839.89;124759;1109;102270;-82
2022/05/16 07:03:16;;;;;;;8.77;3.03;;;;;;;19.28;48.76;100850.61;125447;1109;102207;-85
2022/05/16 07:06:20;;;;;;;5.53;2.40;;;;;;;19.37;46.69;100840.02;125414;1109;108767;-81
2022/05/16 07:09:12;;;;;;;5.27;2.13;;;;;;;19.47;46.95;100837.39;125288;1105;104325;-82
2022/05/16 07:12:07;;;;;;;6.03;2.40;;;;;;;19.52;45.98;100824.98;124958;1106;104268;-81
2022/05/16 07:15:00;;;;;;;4.50;2.13;;;;;;;19.74;46.75;100844.59;125007;1105;102793;-83
2022/05/16 07:22:29;;;;;;;7.77;2.30;;;;;;;20.15;44.85;100845.61;125534;1105;102331;-83
2022/05/16 07:31:09;;;;;;;4.97;2.50;;;;;;;20.71;42.34;100847.48;126187;1102;101881;-81
2022/05/16 07:45:11;;;;;;;5.90;2.50;;;;;;;21.45;40.81;100833.96;125933;1102;101715;-80
2022/05/16 07:55:56;;;;;;;8.03;2.33;;;;;;;22.03;39.44;100839.94;126033;1106;102122;-82
2022/05/16 07:59:25;;;;;;;7.40;2.57;;;;;;;22.17;38.84;100837.18;124907;1109;104210;-80
2022/05/16 08:05:09;;;;;;;4.45;2.52;;;;;;;22.41;38.42;100838.84;124840;1109;103041;-80
2022/05/16 08:11:14;;;;;;;5.37;2.23;;;;;;;22.65;38.08;100824.36;124928;1109;104284;-79
2022/05/16 08:17:17;;;;;;;6.93;2.30;;;;;;;23.04;37.70;100838.25;125084;1109;104178;-83
2022/05/16 08:20:17;;;;;;;7.00;2.90;;;;;;;23.23;36.61;100825.58;125030;1111;102823;-84
2022/05/16 08:23:22;;;;;;;;;;;;;;;;;;;;;
2022/05/16 08:30:44;;;;;;;5.07;2.50;;;;;;;23.51;33.21;100827.92;125257;1107;102085;-81
2022/05/16 08:33:36;;;;;;;5.50;2.37;;;;;;;23.44;35.13;100826.25;125151;1109;107041;-83
2022/05/16 08:40:10;;;;;;;7.67;2.65;;;;;;;23.51;35.21;100818.12;125633;1109;101787;-83
2022/05/16 08:43:32;;;;;;;6.73;2.40;;;;;;;23.54;34.63;100817.17;125060;1112;103602;-84
2022/05/16 08:46:24;;;;;;;5.70;2.67;;;;;;;23.66;34.90;100819.70;124660;1109;102083;-83
2022/05/16 08:49:30;;;;;;;3.97;2.47;;;;;;;23.76;34.50;100822.25;124692;1109;104245;-78
2022/05/16 08:52:07;;;;;;;7.43;2.50;;;;;;;23.56;34.10;100818.06;124274;1109;104600;-77
2022/05/16 08:54:53;;;;;;;6.83;2.60;;;;;;;23.40;33.84;100814.67;123820;1108;103080;-80
2022/05/16 08:57:33;;;;;;;6.57;2.67;;;;;;;23.35;34.32;100811.17;124916;1108;102942;-79
2022/05/16 09:00:26;;;;;;;7.20;2.57;;;;;;;23.45;34.02;100822.64;124725;1109;102490;-80
2022/05/16 09:03:14;;;;;;;9.30;3.40;;;;;;;23.44;34.49;100815.54;124744;1105;102634;-80
2022/05/16 09:05:58;;;;;;;8.33;2.57;;;;;;;23.50;34.17;100812.78;124556;1105;102864;-80
2022/05/16 09:09:02;;;;;;;9.70;2.60;;;;;;;23.58;34.44;100796.62;124841;1105;103262;-78
2022/05/16 09:12:03;;;;;;;5.15;2.35;;;;;;;23.64;33.86;100805.45;125584;1102;104309;-79
2022/05/16 09:15:17;;;;;;;;;;;;;;;;;;;;;
2022/05/16 09:18:24;;;;;;;8.47;2.50;;;;;;;23.29;34.51;100800.53;125349;1102;107101;-81
2022/05/16 09:21:15;;;;;;;8.20;2.53;;;;;;;23.28;33.41;100796.98;125290;1105;102228;-78
2022/05/16 09:24:10;;;;;;;5.47;2.20;;;;;;;23.25;33.11;100805.05;125293;1102;102306;-80
2022/05/16 09:27:06;;;;;;;8.60;2.37;;;;;;;23.27;33.38;100792.52;125396;1102;104248;-81
2022/05/16 09:29:53;;;;;;;5.77;2.40;;;;;;;23.33;33.63;100795.12;125281;1102;104152;-80
2022/05/16 09:33:34;;;;;;;7.23;2.50;;;;;;;23.20;33.04;100781.91;125364;1102;102051;-81
2022/05/16 09:36:34;;;;;;;7.07;2.50;;;;;;;23.16;32.83;100786.42;125496;1102;104271;-81
2022/05/16 09:39:12;;;;;;;5.17;2.17;;;;;;;23.17;33.20;100777.49;125729;1102;104176;-81
2022/05/16 09:41:58;;;;;;;8.43;2.20;;;;;;;23.22;32.96;100777.41;125239;1102;102152;-80
2022/05/16 09:44:47;;;;;;;8.73;2.70;;;;;;;23.28;33.48;100775.56;124976;1105;104268;-82
2022/05/16 09:47:36;;;;;;;5.07;2.40;;;;;;;23.38;33.20;100765.61;125324;1105;104217;-81
2022/05/16 09:50:51;;;;;;;;;;;;;;;;;;;;;
2022/05/16 09:54:00;;;;;;;4.50;2.23;;;;;;;23.48;32.82;100764.60;125213;1106;104172;-82
2022/05/16 09:57:23;;;;;;;6.57;2.50;;;;;;;23.45;32.65;100761.96;125308;1105;102197;-80
2022/05/16 10:00:25;;;;;;;4.30;2.10;;;;;;;23.42;32.70;100750.38;124948;1105;103284;-80
2022/05/16 10:03:35;;;;;;;4.50;2.20;;;;;;;23.37;33.15;100749.56;125029;1105;104252;-80
2022/05/16 10:06:33;;;;;;;7.53;2.50;;;;;;;23.36;33.10;100740.66;125139;1105;104159;-83
2022/05/16 10:09:18;;;;;;;8.37;2.70;;;;;;;23.40;33.13;100750.41;125040;1106;104271;-81
2022/05/16 10:11:57;;;;;;;9.87;2.50;;;;;;;23.46;32.76;100744.97;125312;1105;102286;-83
2022/05/16 10:14:36;;;;;;;7.10;2.63;;;;;;;23.46;32.70;100744.09;124793;1109;102111;-80
2022/05/16 10:17:13;;;;;;;8.27;2.47;;;;;;;23.50;32.55;100737.80;124939;1109;103014;-80
2022/05/16 10:20:04;;;;;;;8.80;2.37;;;;;;;23.58;32.69;100730.53;125320;1105;104231;-85
2022/05/16 10:22:48;;;;;;;7.20;2.50;;;;;;;23.51;32.32;100739.55;125324;1105;104195;-83
2022/05/16 10:26:18;;;;;;;8.60;2.60;;;;;;;23.37;32.51;100730.83;125640;1106;101879;-81
2022/05/16 10:28:57;;;;;;;;;;;;;;;23.28;32.40;100724.70;125390;1109;102451;-83
2022/05/16 10:35:41;;;;;;;8.00;2.40;;;;;;;23.06;33.24;100721.38;124923;1105;102314;-84
2022/05/16 10:38:38;;;;;;;6.73;2.70;;;;;;;23.19;33.20;100724.81;125038;1105;103918;-81
2022/05/16 10:41:37;;;;;;;6.40;2.97;;;;;;;23.30;33.40;100698.78;124980;1105;104380;-80
2022/05/16 10:44:32;;;;;;;7.15;2.40;;;;;;;23.37;32.81;100712.08;124905;1105;119566;-79
2022/05/16 10:47:26;;;;;;;8.03;2.50;;;;;;;23.36;33.06;100715.66;125133;1102;104495;-79
2022/05/16 10:50:08;;;;;;;7.33;2.60;;;;;;;23.33;32.76;100713.93;125135;1102;102337;-79
2022/05/16 10:52:59;;;;;;;6.43;2.47;;;;;;;23.40;33.26;100706.69;124969;1102;104172;-78
2022/05/16 10:56:13;;;;;;;;;;;;;;;;;;;;;
2022/05/16 10:59:04;;;;;;;8.67;2.97;;;;;;;23.43;32.84;100706.64;125044;1102;104198;-81
2022/05/16 11:05:55;;;;;;;6.60;2.70;;;;;;;23.38;32.86;100705.83;124960;1105;104066;-82
2022/05/16 11:12:26;;;;;;;5.77;2.60;;;;;;;23.63;32.73;100699.20;125092;1106;104533;-82
2022/05/16 11:19:23;;;;;;;10.20;3.00;;;;;;;23.77;32.95;100692.75;124729;1105;102821;-83
2022/05/16 11:22:49;;;;;;;6.33;2.63;;;;;;;23.96;32.79;100680.84;124955;1105;104581;-81
2022/05/16 11:26:35;;;;;;;;;;;;;;;;;;;;;
2022/05/16 11:30:08;;;;;;;6.37;2.47;;;;;;;24.05;32.78;100679.81;124923;1105;104387;-82
2022/05/16 11:33:11;;;;;;;;;;;;;;;24.18;32.51;100675.11;124988;1109;104182;-81
2022/05/16 11:36:29;;;;;;;4.33;2.93;;;;;;;24.40;32.67;100673.83;124635;1109;104261;-82
2022/05/16 11:39:19;;;;;;;4.90;2.40;;;;;;;24.53;32.21;100670.91;125076;1109;101988;-81
2022/05/16 11:42:16;;;;;;;8.60;2.60;;;;;;;24.60;30.94;100666.33;124978;1105;104262;-80
2022/05/16 11:45:20;;;;;;;8.37;2.47;;;;;;;24.37;31.20;100664.93;125196;1102;102303;-81
2022/05/16 11:48:39;;;;;;;;;;;;;;;;;;;;;
2022/05/16 11:51:25;;;;;;;8.65;2.70;;;;;;;24.23;31.62;100658.05;125205;1102;104256;-81
2022/05/16 11:54:37;;;;;;;9.30;2.80;;;;;;;24.30;30.90;100655.25;125259;1102;102044;-79
2022/05/16 12:01:03;;;;;;;6.73;2.30;;;;;;;24.22;30.74;100656.27;125056;1102;104214;-78
2022/05/16 12:04:25;;;;;;;7.93;2.87;;;;;;;24.20;31.22;100662.59;125078;1099;104414;-81
2022/05/16 12:07:33;;;;;;;;;;;;;;;;;;;;;
2022/05/16 12:13:32;;;;;;;6.40;2.50;;;;;;;24.42;30.68;100652.34;125446;1099;104166;-80
2022/05/16 12:16:28;;;;;;;8.13;2.60;;;;;;;24.52;30.71;100642.31;125145;1099;102322;-80
2022/05/16 12:19:40;;;;;;;7.70;2.67;;;;;;;24.51;30.70;100636.07;125129;1099;105802;-79
2022/05/16 12:22:57;;;;;;;10.00;2.52;;;;;;;24.58;30.68;100632.36;125078;1099;104277;-79
2022/05/16 12:25:37;;;;;;;;;;;;;;;24.71;29.58;100624.97;125719;1099;102527;-79
2022/05/16 12:28:42;;;;;;;7.80;3.17;;;;;;;24.75;29.58;100625.78;125847;1099;101974;-79
2022/05/16 12:32:22;;;;;;;7.67;2.80;;;;;;;24.85;29.79;100624.66;125014;1099;102360;-80
2022/05/16 12:35:34;;;;;;;6.10;2.10;;;;;;;24.73;29.67;100614.20;125128;1102;104159;-82
2022/05/16 12:38:12;;;;;;;6.40;2.60;;;;;;;24.62;29.56;100617.11;125165;1102;104357;-80
2022/05/16 12:41:44;;;;;;;8.27;2.50;;;;;;;24.48;29.42;100611.99;125183;1102;104242;-80
2022/05/16 12:44:54;;;;;;;5.13;2.60;;;;;;;24.36;29.83;100612.23;125208;1102;104175;-80
2022/05/16 12:48:10;;;;;;;;;;;;;;;;;;;;;
2022/05/16 12:51:31;;;;;;;4.80;2.33;;;;;;;24.37;29.71;100605.94;125166;1102;104380;-82
2022/05/16 12:55:03;;;;;;;4.70;2.23;;;;;;;24.44;29.85;100598.67;125440;1102;108247;-80
2022/05/16 12:57:55;;;;;;;12.70;3.10;;;;;;;24.31;29.72;100580.14;125257;1102;102297;-79
2022/05/16 13:00:54;;;;;;;7.40;2.70;;;;;;;24.29;29.48;100599.84;125084;1102;102420;-79
2022/05/16 13:11:12;;;;;;;2.37;2.10;;;;;;;24.25;29.74;100577.58;125012;1102;104588;-80
2022/05/16 13:14:25;;;;;;;4.50;2.50;;;;;;;24.29;29.45;100587.31;125388;1099;104258;-79
2022/05/16 13:17:20;;;;;;;6.17;2.60;;;;;;;24.31;29.14;100582.83;125938;1099;102784;-79
2022/05/16 13:20:31;;;;;;;7.40;2.23;;;;;;;24.27;29.00;100573.06;125754;1099;101714;-79
2022/05/16 13:30:26;;;;;;;9.47;2.30;;;;;;;24.18;28.66;100571.47;125765;1099;102771;-80
2022/05/16 13:33:25;;;;;;;5.07;2.07;;;;;;;24.09;28.49;100576.09;125781;1099;102762;-78
2022/05/16 13:36:22;;;;;;;3.43;1.90;;;;;;;23.97;28.98;100571.88;125795;1099;104245;-79
2022/05/16 13:39:13;;;;;;;5.73;2.30;;;;;;;23.95;28.76;100581.71;125833;1099;104156;-79
2022/05/16 13:41:54;;;;;;;8.87;2.60;;;;;;;23.91;29.08;100567.50;125605;1098;102443;-79
2022/05/16 13:44:26;;;;;;;6.35;2.65;;;;;;;23.90;29.23;100573.76;124980;1099;104146;-79
2022/05/16 13:50:33;;;;;;;4.90;2.57;;;;;;;23.92;29.28;100571.95;126195;1099;102378;-79
2022/05/16 13:53:34;;;;;;;6.20;2.30;;;;;;;23.85;29.51;100556.89;125765;1099;102358;-79
2022/05/16 13:57:04;;;;;;;6.03;2.27;;;;;;;23.86;29.55;100558.67;125617;1099;102226;-79
2022/05/16 13:59:57;;;;;;;9.00;2.30;;;;;;;23.86;29.95;100540.78;126667;1099;104222;-80
2022/05/16 14:02:53;;;;;;;9.77;3.03;;;;;;;23.95;29.63;100554.91;125938;1098;104201;-80
2022/05/16 14:14:38;;;;;;;6.10;2.10;;;;;;;24.02;29.28;100549.41;126225;1099;102736;-80
2022/05/16 14:17:50;;;;;;;3.50;2.08;;;;;;;23.94;29.26;100556.72;126199;1099;104217;-82
2022/05/16 14:21:05;;;;;;;5.77;2.47;;;;;;;23.87;29.36;100552.37;126166;1099;102012;-82
2022/05/16 14:24:08;;;;;;;8.67;2.30;;;;;;;23.85;29.40;100544.37;126136;1098;102568;-81
2022/05/16 14:27:35;;;;;;;3.93;1.97;;;;;;;23.92;29.26;100553.20;125149;1102;107764;-81
2022/05/16 14:30:50;;;;;;;5.17;2.20;;;;;;;23.98;29.60;100549.50;125417;1102;103191;-81
2022/05/16 14:33:56;;;;;;;;;;;;;;;;;;;;;
2022/05/16 14:41:10;;;;;;;4.60;2.27;;;;;;;23.85;28.84;100532.78;125544;1102;104226;-83
2022/05/16 14:47:46;;;;;;;4.13;1.97;;;;;;;23.95;29.06;100526.34;125913;1102;102031;-84
2022/05/16 14:50:50;;;;;;;7.95;2.50;;;;;;;23.90;28.15;100530.88;125889;1102;102081;-82
2022/05/16 14:57:04;;;;;;;6.23;1.93;;;;;;;23.88;28.97;100513.09;125963;1102;102550;-83
2022/05/16 15:04:02;;;;;;;7.70;2.27;;;;;;;23.84;28.44;100531.91;126263;1106;101417;-84
2022/05/16 15:21:38;;;;;;;;;;;;;;;23.77;28.23;100506.09;125995;1102;102378;-79
2022/05/16 15:28:54;;;;;;;6.22;1.92;;;;;;;23.65;28.96;100501.86;125602;1106;101663;-79
2022/05/16 15:31:48;;;;;;;7.53;2.10;;;;;;;23.62;28.41;100499.24;125688;1109;102130;-80
2022/05/16 15:41:49;;;;;;;7.13;2.10;;;;;;;23.60;28.74;100501.04;125147;1112;102458;-79
2022/05/16 15:44:26;;;;;;;5.43;2.10;;;;;;;23.58;28.41;100507.36;125268;1112;102367;-78
2022/05/16 15:47:28;;;;;;;7.20;2.53;;;;;;;23.54;28.40;100501.15;125231;1111;104119;-78
2022/05/16 15:50:16;;;;;;;7.57;2.17;;;;;;;23.53;28.99;100503.86;125271;1112;104076;-81
2022/05/16 15:53:13;;;;;;;4.90;2.27;;;;;;;23.51;28.68;100509.23;125232;1112;103459;-77
2022/05/16 16:02:59;;;;;;;9.23;2.20;;;;;;;23.37;29.04;100514.83;125269;1109;102128;-79
2022/05/16 16:09:31;;;;;;;6.57;2.30;;;;;;;23.35;28.86;100505.95;125301;1109;101717;-77
2022/05/16 16:12:48;;;;;;;10.47;2.47;;;;;;;23.36;29.41;100512.17;125479;1109;102221;-77
2022/05/16 16:25:09;;;;;;;7.67;2.20;;;;;;;23.16;29.13;100500.02;126086;1101;102237;-78
2022/05/16 16:28:16;;;;;;;3.73;2.20;;;;;;;23.11;28.97;100497.42;126030;1102;104281;-78
2022/05/16 16:34:52;;;;;;;6.63;2.30;;;;;;;23.04;29.50;100505.54;125700;1109;102329;-80
2022/05/16 17:21:52;;;;;;;11.17;3.00;;;;;;;22.01;31.17;100505.98;125556;1109;101880;-78
2022/05/16 17:57:52;;;;;;;12.30;5.03;;;;;;;20.93;32.20;100535.39;128058;1089;102413;-78
2022/05/16 19:24:01;;;;;;;17.50;5.40;;;;;;;19.55;38.26;100569.50;125567;1112;101617;-77
2022/05/16 19:27:14;;;;;;;19.50;5.67;;;;;;;19.53;38.32;100579.27;125131;1112;104283;-76
2022/05/16 19:37:15;;;;;;;13.87;5.50;;;;;;;19.46;38.93;100581.05;125353;1115;101648;-77
2022/05/16 19:44:01;;;;;;;18.83;5.90;;;;;;;19.39;38.85;100587.24;125229;1114;101968;-76
2022/05/16 19:51:29;;;;;;;;;;;;;;;;;;;;;
2022/05/16 20:01:50;;;;;;;19.87;6.30;;;;;;;19.27;39.85;100585.44;124919;1121;103469;-77
2022/05/16 20:08:44;;;;;;;15.10;5.70;;;;;;;19.24;40.01;100576.58;125056;1118;104259;-77
2022/05/16 20:37:43;;;;;;;;;;;;;;;18.45;41.94;100573.64;125190;1118;102502;-76
2022/05/16 20:58:36;;;;;;;15.53;5.40;;;;;;;18.20;42.97;100592.14;124926;1121;101905;-76
2022/05/16 21:19:35;;;;;;;15.43;5.40;;;;;;;17.64;45.09;100595.22;126182;1105;104076;-77
2022/05/16 21:29:53;;;;;;;18.87;5.77;;;;;;;17.58;45.71;100598.73;125585;1109;103486;-76
2022/05/16 21:33:00;;;;;;;21.53;6.17;;;;;;;17.56;46.13;100589.85;125700;1109;102549;-77
2022/05/16 21:40:25;;;;;;;17.23;5.90;;;;;;;17.47;46.61;100582.72;125390;1112;102686;-76
2022/05/16 21:47:58;;;;;;;12.63;5.40;;;;;;;17.43;46.48;100583.56;125122;1115;102181;-77
2022/05/16 21:58:39;;;;;;;18.77;5.97;;;;;;;17.46;46.86;100583.59;125126;1115;102672;-77
2022/05/16 22:08:36;;;;;;;19.40;6.47;;;;;;;17.39;46.86;100598.56;125160;1112;101853;-77
2022/05/16 22:16:27;;;;;;;15.80;5.87;;;;;;;17.35;47.47;100598.52;125215;1115;101703;-77
2022/05/16 23:27:40;;;;;;;16.50;5.33;;;;;;;17.04;49.54;100603.50;127026;1101;118560;-77
